sensor_id;sensor_type;location;lat;lon;timestamp;temperature;humidity
13245;DHT22;6689;53.400;12.486;2023-10-08T00:02:10;12.80;2.60
13245;DHT22;6689;53.400;12.486;2023-10-08T00:04:40;12.80;5.90
13245;DHT22;6689;53.400;12.486;2023-10-08T00:07:10;12.70;4.40
13245;DHT22;6689;53.400;12.486;2023-10-08T00:09:37;12.70;12.30
13245;DHT22;6689;53.400;12.486;2023-10-08T00:12:05;12.60;8.90
13245;DHT22;6689;53.400;12.486;2023-10-08T00:14:34;12.80;11.40
13245;DHT22;6689;53.400;12.486;2023-10-08T00:17:12;12.70;7.70
13245;DHT22;6689;53.400;12.486;2023-10-08T00:19:40;12.70;7.10
13245;DHT22;6689;53.400;12.486;2023-10-08T00:22:09;12.70;15.00
13245;DHT22;6689;53.400;12.486;2023-10-08T00:24:39;12.70;16.70
13245;DHT22;6689;53.400;12.486;2023-10-08T00:27:08;12.70;16.00
13245;DHT22;6689;53.400;12.486;2023-10-08T00:29:35;12.70;7.80
13245;DHT22;6689;53.400;12.486;2023-10-08T00:32:08;12.60;19.20
13245;DHT22;6689;53.400;12.486;2023-10-08T00:34:42;12.60;17.50
13245;DHT22;6689;53.400;12.486;2023-10-08T00:37:10;12.70;16.60
13245;DHT22;6689;53.400;12.486;2023-10-08T00:39:40;12.70;18.00
13245;DHT22;6689;53.400;12.486;2023-10-08T00:42:08;12.70;14.40
13245;DHT22;6689;53.400;12.486;2023-10-08T00:44:40;12.70;13.70
13245;DHT22;6689;53.400;12.486;2023-10-08T00:47:14;12.70;13.40
13245;DHT22;6689;53.400;12.486;2023-10-08T00:49:48;12.60;28.10
13245;DHT22;6689;53.400;12.486;2023-10-08T00:52:30;12.60;64.20
13245;DHT22;6689;53.400;12.486;2023-10-08T00:55:05;12.60;33.90
13245;DHT22;6689;53.400;12.486;2023-10-08T00:57:52;12.50;49.10
13245;DHT22;6689;53.400;12.486;2023-10-08T01:00:24;12.50;96.10
13245;DHT22;6689;53.400;12.486;2023-10-08T01:02:59;12.50;79.30
13245;DHT22;6689;53.400;12.486;2023-10-08T01:05:29;12.50;70.50
13245;DHT22;6689;53.400;12.486;2023-10-08T01:08:11;12.60;78.00
13245;DHT22;6689;53.400;12.486;2023-10-08T01:10:43;12.60;68.00
13245;DHT22;6689;53.400;12.486;2023-10-08T01:13:13;12.60;67.00
13245;DHT22;6689;53.400;12.486;2023-10-08T01:15:47;12.60;52.10
13245;DHT22;6689;53.400;12.486;2023-10-08T01:18:16;12.60;51.40
13245;DHT22;6689;53.400;12.486;2023-10-08T01:20:56;12.50;26.20
13245;DHT22;6689;53.400;12.486;2023-10-08T01:23:35;12.60;51.00
13245;DHT22;6689;53.400;12.486;2023-10-08T01:26:04;12.50;64.70
13245;DHT22;6689;53.400;12.486;2023-10-08T01:28:37;12.50;63.90
13245;DHT22;6689;53.400;12.486;2023-10-08T01:31:06;12.60;90.00
13245;DHT22;6689;53.400;12.486;2023-10-08T01:33:36;12.60;87.50
13245;DHT22;6689;53.400;12.486;2023-10-08T01:36:12;12.60;57.30
13245;DHT22;6689;53.400;12.486;2023-10-08T01:38:41;12.60;51.20
13245;DHT22;6689;53.400;12.486;2023-10-08T01:41:09;12.60;49.50
13245;DHT22;6689;53.400;12.486;2023-10-08T01:43:44;12.60;38.60
13245;DHT22;6689;53.400;12.486;2023-10-08T01:46:12;12.50;55.40
13245;DHT22;6689;53.400;12.486;2023-10-08T01:48:41;12.50;61.70
13245;DHT22;6689;53.400;12.486;2023-10-08T01:51:10;12.50;64.30
13245;DHT22;6689;53.400;12.486;2023-10-08T01:53:52;12.50;45.00
13245;DHT22;6689;53.400;12.486;2023-10-08T01:56:21;12.50;57.70
13245;DHT22;6689;53.400;12.486;2023-10-08T01:58:50;12.50;53.50
13245;DHT22;6689;53.400;12.486;2023-10-08T02:01:19;12.50;51.50
13245;DHT22;6689;53.400;12.486;2023-10-08T02:03:47;12.40;42.80
13245;DHT22;6689;53.400;12.486;2023-10-08T02:06:15;12.40;29.20
13245;DHT22;6689;53.400;12.486;2023-10-08T02:08:43;12.40;48.30
13245;DHT22;6689;53.400;12.486;2023-10-08T02:11:12;12.40;33.20
13245;DHT22;6689;53.400;12.486;2023-10-08T02:13:41;12.50;52.90
13245;DHT22;6689;53.400;12.486;2023-10-08T02:16:09;12.50;42.60
13245;DHT22;6689;53.400;12.486;2023-10-08T02:18:36;12.40;40.70
13245;DHT22;6689;53.400;12.486;2023-10-08T02:21:04;12.50;49.90
13245;DHT22;6689;53.400;12.486;2023-10-08T02:23:31;12.40;32.00
13245;DHT22;6689;53.400;12.486;2023-10-08T02:26:02;12.40;37.70
13245;DHT22;6689;53.400;12.486;2023-10-08T02:28:31;12.50;27.40
13245;DHT22;6689;53.400;12.486;2023-10-08T02:30:59;12.50;28.80
13245;DHT22;6689;53.400;12.486;2023-10-08T02:33:27;12.50;13.50
13245;DHT22;6689;53.400;12.486;2023-10-08T02:35:56;12.50;14.80
13245;DHT22;6689;53.400;12.486;2023-10-08T02:38:23;12.50;13.90
13245;DHT22;6689;53.400;12.486;2023-10-08T02:40:51;12.40;5.80
13245;DHT22;6689;53.400;12.486;2023-10-08T02:43:22;12.50;6.00
13245;DHT22;6689;53.400;12.486;2023-10-08T02:45:51;12.50;2.10
13245;DHT22;6689;53.400;12.486;2023-10-08T02:48:21;12.50;1.00
13245;DHT22;6689;53.400;12.486;2023-10-08T02:50:49;12.50;1.00
13245;DHT22;6689;53.400;12.486;2023-10-08T02:53:19;12.50;1.00
13245;DHT22;6689;53.400;12.486;2023-10-08T02:55:51;12.50;1.00
13245;DHT22;6689;53.400;12.486;2023-10-08T02:58:19;12.50;1.00
13245;DHT22;6689;53.400;12.486;2023-10-08T03:00:48;12.50;1.00
13245;DHT22;6689;53.400;12.486;2023-10-08T03:03:20;12.50;1.00
13245;DHT22;6689;53.400;12.486;2023-10-08T03:05:52;12.40;1.00
13245;DHT22;6689;53.400;12.486;2023-10-08T03:08:22;12.40;1.00
13245;DHT22;6689;53.400;12.486;2023-10-08T03:10:51;12.40;1.00
13245;DHT22;6689;53.400;12.486;2023-10-08T03:13:21;12.40;1.00
13245;DHT22;6689;53.400;12.486;2023-10-08T03:15:49;12.30;1.00
13245;DHT22;6689;53.400;12.486;2023-10-08T03:18:36;12.30;1.00
13245;DHT22;6689;53.400;12.486;2023-10-08T03:21:08;12.20;1.00
13245;DHT22;6689;53.400;12.486;2023-10-08T03:23:46;12.10;1.00
13245;DHT22;6689;53.400;12.486;2023-10-08T03:26:16;12.20;1.00
13245;DHT22;6689;53.400;12.486;2023-10-08T03:29:04;12.10;1.00
13245;DHT22;6689;53.400;12.486;2023-10-08T03:31:34;12.10;1.00
13245;DHT22;6689;53.400;12.486;2023-10-08T03:34:19;12.00;1.00
13245;DHT22;6689;53.400;12.486;2023-10-08T03:36:47;12.00;1.00
13245;DHT22;6689;53.400;12.486;2023-10-08T03:39:16;12.00;1.00
13245;DHT22;6689;53.400;12.486;2023-10-08T03:41:45;12.00;1.00
13245;DHT22;6689;53.400;12.486;2023-10-08T03:44:25;12.00;1.00
13245;DHT22;6689;53.400;12.486;2023-10-08T03:46:56;12.00;1.00
13245;DHT22;6689;53.400;12.486;2023-10-08T03:49:25;12.00;1.00
13245;DHT22;6689;53.400;12.486;2023-10-08T03:51:53;11.90;1.00
13245;DHT22;6689;53.400;12.486;2023-10-08T03:54:23;11.80;1.00
13245;DHT22;6689;53.400;12.486;2023-10-08T03:57:00;11.90;1.00
13245;DHT22;6689;53.400;12.486;2023-10-08T03:59:30;11.80;1.00
13245;DHT22;6689;53.400;12.486;2023-10-08T04:02:01;11.80;1.00
13245;DHT22;6689;53.400;12.486;2023-10-08T04:04:40;11.80;1.00
13245;DHT22;6689;53.400;12.486;2023-10-08T04:07:20;11.70;1.00
13245;DHT22;6689;53.400;12.486;2023-10-08T04:10:06;11.70;1.00
13245;DHT22;6689;53.400;12.486;2023-10-08T04:12:47;11.60;1.00
13245;DHT22;6689;53.400;12.486;2023-10-08T04:15:17;11.60;1.00
13245;DHT22;6689;53.400;12.486;2023-10-08T04:17:45;11.60;1.00
13245;DHT22;6689;53.400;12.486;2023-10-08T04:20:18;11.50;1.00
13245;DHT22;6689;53.400;12.486;2023-10-08T04:23:00;11.50;1.00
13245;DHT22;6689;53.400;12.486;2023-10-08T04:25:29;11.40;1.00
13245;DHT22;6689;53.400;12.486;2023-10-08T04:27:57;11.40;1.00
13245;DHT22;6689;53.400;12.486;2023-10-08T04:30:26;11.40;1.00
13245;DHT22;6689;53.400;12.486;2023-10-08T04:32:59;11.30;1.00
13245;DHT22;6689;53.400;12.486;2023-10-08T04:35:34;11.30;1.00
13245;DHT22;6689;53.400;12.486;2023-10-08T04:38:06;11.20;1.00
13245;DHT22;6689;53.400;12.486;2023-10-08T04:40:34;11.20;1.00
13245;DHT22;6689;53.400;12.486;2023-10-08T04:43:08;11.10;1.00
13245;DHT22;6689;53.400;12.486;2023-10-08T04:45:37;11.10;1.00
13245;DHT22;6689;53.400;12.486;2023-10-08T04:48:05;11.10;1.00
13245;DHT22;6689;53.400;12.486;2023-10-08T04:50:37;11.00;1.00
13245;DHT22;6689;53.400;12.486;2023-10-08T04:53:10;11.00;1.00
13245;DHT22;6689;53.400;12.486;2023-10-08T04:55:41;10.90;1.00
13245;DHT22;6689;53.400;12.486;2023-10-08T04:58:14;10.90;1.00
13245;DHT22;6689;53.400;12.486;2023-10-08T05:00:47;10.90;1.00
13245;DHT22;6689;53.400;12.486;2023-10-08T05:03:25;10.80;1.00
13245;DHT22;6689;53.400;12.486;2023-10-08T05:06:01;10.80;1.00
13245;DHT22;6689;53.400;12.486;2023-10-08T05:08:35;10.70;1.00
13245;DHT22;6689;53.400;12.486;2023-10-08T05:11:14;10.70;1.00
13245;DHT22;6689;53.400;12.486;2023-10-08T05:14:12;10.70;1.00
13245;DHT22;6689;53.400;12.486;2023-10-08T05:16:55;10.60;1.00
13245;DHT22;6689;53.400;12.486;2023-10-08T05:19:29;10.60;1.00
13245;DHT22;6689;53.400;12.486;2023-10-08T05:22:18;10.60;1.00
13245;DHT22;6689;53.400;12.486;2023-10-08T05:25:06;10.50;1.00
13245;DHT22;6689;53.400;12.486;2023-10-08T05:27:34;10.50;1.00
13245;DHT22;6689;53.400;12.486;2023-10-08T05:30:23;10.50;1.00
13245;DHT22;6689;53.400;12.486;2023-10-08T05:33:04;10.50;1.00
13245;DHT22;6689;53.400;12.486;2023-10-08T05:35:48;10.50;1.00
13245;DHT22;6689;53.400;12.486;2023-10-08T05:38:18;10.40;1.00
13245;DHT22;6689;53.400;12.486;2023-10-08T05:40:49;10.40;1.00
13245;DHT22;6689;53.400;12.486;2023-10-08T05:43:34;10.40;1.00
13245;DHT22;6689;53.400;12.486;2023-10-08T05:46:19;10.40;1.00
13245;DHT22;6689;53.400;12.486;2023-10-08T05:49:00;10.40;1.00
13245;DHT22;6689;53.400;12.486;2023-10-08T05:51:30;10.40;1.00
13245;DHT22;6689;53.400;12.486;2023-10-08T05:54:14;10.40;1.00
13245;DHT22;6689;53.400;12.486;2023-10-08T05:57:03;10.30;1.00
13245;DHT22;6689;53.400;12.486;2023-10-08T05:59:33;10.30;1.00
13245;DHT22;6689;53.400;12.486;2023-10-08T06:02:05;10.30;1.00
13245;DHT22;6689;53.400;12.486;2023-10-08T06:04:51;10.20;1.00
13245;DHT22;6689;53.400;12.486;2023-10-08T06:07:37;10.20;1.00
13245;DHT22;6689;53.400;12.486;2023-10-08T06:10:16;10.20;1.00
13245;DHT22;6689;53.400;12.486;2023-10-08T06:13:09;10.20;1.00
13245;DHT22;6689;53.400;12.486;2023-10-08T06:15:40;10.10;1.00
13245;DHT22;6689;53.400;12.486;2023-10-08T06:18:14;10.20;1.00
13245;DHT22;6689;53.400;12.486;2023-10-08T06:20:41;10.40;1.00
13245;DHT22;6689;53.400;12.486;2023-10-08T06:23:11;10.50;1.00
13245;DHT22;6689;53.400;12.486;2023-10-08T06:25:40;10.70;1.00
13245;DHT22;6689;53.400;12.486;2023-10-08T06:28:17;10.90;1.00
13245;DHT22;6689;53.400;12.486;2023-10-08T06:30:46;11.10;1.00
13245;DHT22;6689;53.400;12.486;2023-10-08T06:33:14;11.20;1.00
13245;DHT22;6689;53.400;12.486;2023-10-08T06:35:42;11.40;1.00
13245;DHT22;6689;53.400;12.486;2023-10-08T06:38:27;11.50;99.90
13245;DHT22;6689;53.400;12.486;2023-10-08T06:40:58;11.70;99.90
13245;DHT22;6689;53.400;12.486;2023-10-08T06:43:26;11.90;99.90
13245;DHT22;6689;53.400;12.486;2023-10-08T06:45:54;12.10;99.90
13245;DHT22;6689;53.400;12.486;2023-10-08T06:48:24;12.30;99.90
13245;DHT22;6689;53.400;12.486;2023-10-08T06:50:55;12.50;99.90
13245;DHT22;6689;53.400;12.486;2023-10-08T06:53:24;12.80;99.90
13245;DHT22;6689;53.400;12.486;2023-10-08T06:55:57;13.10;99.90
13245;DHT22;6689;53.400;12.486;2023-10-08T06:58:29;13.40;99.90
13245;DHT22;6689;53.400;12.486;2023-10-08T07:00:58;13.80;99.90
13245;DHT22;6689;53.400;12.486;2023-10-08T07:03:30;14.10;99.90
13245;DHT22;6689;53.400;12.486;2023-10-08T07:05:59;14.50;99.90
13245;DHT22;6689;53.400;12.486;2023-10-08T07:08:29;14.90;99.90
13245;DHT22;6689;53.400;12.486;2023-10-08T07:11:02;15.50;99.90
13245;DHT22;6689;53.400;12.486;2023-10-08T07:13:32;16.20;99.90
13245;DHT22;6689;53.400;12.486;2023-10-08T07:16:01;17.00;99.90
13245;DHT22;6689;53.400;12.486;2023-10-08T07:18:30;17.80;99.90
13245;DHT22;6689;53.400;12.486;2023-10-08T07:21:00;19.00;99.90
13245;DHT22;6689;53.400;12.486;2023-10-08T07:23:29;20.50;81.70
13245;DHT22;6689;53.400;12.486;2023-10-08T07:26:02;22.10;40.40
13245;DHT22;6689;53.400;12.486;2023-10-08T07:28:36;23.70;13.70
13245;DHT22;6689;53.400;12.486;2023-10-08T07:31:05;24.80;1.00
13245;DHT22;6689;53.400;12.486;2023-10-08T07:33:35;25.90;1.00
13245;DHT22;6689;53.400;12.486;2023-10-08T07:36:03;26.90;1.00
13245;DHT22;6689;53.400;12.486;2023-10-08T07:38:40;27.70;1.00
13245;DHT22;6689;53.400;12.486;2023-10-08T07:41:09;28.50;1.00
13245;DHT22;6689;53.400;12.486;2023-10-08T07:43:40;29.10;1.00
13245;DHT22;6689;53.400;12.486;2023-10-08T07:46:07;29.80;1.00
13245;DHT22;6689;53.400;12.486;2023-10-08T07:48:35;30.20;1.00
13245;DHT22;6689;53.400;12.486;2023-10-08T07:51:06;30.80;1.00
13245;DHT22;6689;53.400;12.486;2023-10-08T07:53:34;31.20;1.00
13245;DHT22;6689;53.400;12.486;2023-10-08T07:56:05;31.60;1.00
13245;DHT22;6689;53.400;12.486;2023-10-08T07:58:35;31.80;1.00
13245;DHT22;6689;53.400;12.486;2023-10-08T08:01:03;32.00;1.00
13245;DHT22;6689;53.400;12.486;2023-10-08T08:03:32;32.20;1.00
13245;DHT22;6689;53.400;12.486;2023-10-08T08:06:02;32.30;1.00
13245;DHT22;6689;53.400;12.486;2023-10-08T08:08:32;32.40;1.00
13245;DHT22;6689;53.400;12.486;2023-10-08T08:10:59;32.80;1.00
13245;DHT22;6689;53.400;12.486;2023-10-08T08:13:31;32.80;1.00
13245;DHT22;6689;53.400;12.486;2023-10-08T08:16:00;32.80;1.00
13245;DHT22;6689;53.400;12.486;2023-10-08T08:18:36;33.00;1.00
13245;DHT22;6689;53.400;12.486;2023-10-08T08:21:08;32.90;1.00
13245;DHT22;6689;53.400;12.486;2023-10-08T08:23:40;32.90;1.00
13245;DHT22;6689;53.400;12.486;2023-10-08T08:26:14;31.30;1.00
13245;DHT22;6689;53.400;12.486;2023-10-08T08:28:55;31.80;1.00
13245;DHT22;6689;53.400;12.486;2023-10-08T08:31:24;31.50;1.00
13245;DHT22;6689;53.400;12.486;2023-10-08T08:33:52;30.00;1.00
13245;DHT22;6689;53.400;12.486;2023-10-08T08:36:23;26.60;1.00
13245;DHT22;6689;53.400;12.486;2023-10-08T08:38:51;24.30;1.00
13245;DHT22;6689;53.400;12.486;2023-10-08T08:41:18;22.90;1.00
13245;DHT22;6689;53.400;12.486;2023-10-08T08:43:50;21.80;1.00
13245;DHT22;6689;53.400;12.486;2023-10-08T08:46:30;20.70;1.00
13245;DHT22;6689;53.400;12.486;2023-10-08T08:49:02;19.80;1.00
13245;DHT22;6689;53.400;12.486;2023-10-08T08:51:31;19.00;1.00
13245;DHT22;6689;53.400;12.486;2023-10-08T08:53:59;18.40;1.00
13245;DHT22;6689;53.400;12.486;2023-10-08T08:56:33;18.00;2.00
13245;DHT22;6689;53.400;12.486;2023-10-08T08:59:01;17.60;9.90
13245;DHT22;6689;53.400;12.486;2023-10-08T09:01:32;17.50;15.30
13245;DHT22;6689;53.400;12.486;2023-10-08T09:04:02;17.20;19.00
13245;DHT22;6689;53.400;12.486;2023-10-08T09:06:32;17.00;21.60
13245;DHT22;6689;53.400;12.486;2023-10-08T09:09:00;16.90;38.10
13245;DHT22;6689;53.400;12.486;2023-10-08T09:11:48;16.90;44.10
13245;DHT22;6689;53.400;12.486;2023-10-08T09:14:19;16.80;51.00
13245;DHT22;6689;53.400;12.486;2023-10-08T09:16:51;16.80;60.20
13245;DHT22;6689;53.400;12.486;2023-10-08T09:19:20;16.80;56.00
13245;DHT22;6689;53.400;12.486;2023-10-08T09:22:01;16.60;50.20
13245;DHT22;6689;53.400;12.486;2023-10-08T09:24:30;16.40;25.70
13245;DHT22;6689;53.400;12.486;2023-10-08T09:27:00;16.40;30.30
13245;DHT22;6689;53.400;12.486;2023-10-08T09:29:28;16.40;38.00
13245;DHT22;6689;53.400;12.486;2023-10-08T09:31:59;16.30;28.90
13245;DHT22;6689;53.400;12.486;2023-10-08T09:34:27;16.50;45.60
13245;DHT22;6689;53.400;12.486;2023-10-08T09:36:56;16.50;31.60
13245;DHT22;6689;53.400;12.486;2023-10-08T09:39:26;16.40;36.60
13245;DHT22;6689;53.400;12.486;2023-10-08T09:41:59;16.40;30.50
13245;DHT22;6689;53.400;12.486;2023-10-08T09:44:29;16.40;11.40
13245;DHT22;6689;53.400;12.486;2023-10-08T09:47:03;16.50;9.30
13245;DHT22;6689;53.400;12.486;2023-10-08T09:49:31;16.60;22.20
13245;DHT22;6689;53.400;12.486;2023-10-08T09:52:03;16.70;28.90
13245;DHT22;6689;53.400;12.486;2023-10-08T09:54:37;16.70;13.80
13245;DHT22;6689;53.400;12.486;2023-10-08T09:57:07;16.80;29.10
13245;DHT22;6689;53.400;12.486;2023-10-08T09:59:36;16.80;14.90
13245;DHT22;6689;53.400;12.486;2023-10-08T10:02:08;16.80;13.60
13245;DHT22;6689;53.400;12.486;2023-10-08T10:04:39;16.90;12.70
13245;DHT22;6689;53.400;12.486;2023-10-08T10:07:10;17.00;12.40
13245;DHT22;6689;53.400;12.486;2023-10-08T10:09:39;17.10;13.90
13245;DHT22;6689;53.400;12.486;2023-10-08T10:12:11;17.20;11.50
13245;DHT22;6689;53.400;12.486;2023-10-08T10:14:43;17.30;1.00
13245;DHT22;6689;53.400;12.486;2023-10-08T10:17:20;17.20;1.00
13245;DHT22;6689;53.400;12.486;2023-10-08T10:19:50;17.40;1.00
13245;DHT22;6689;53.400;12.486;2023-10-08T10:22:28;17.40;1.00
13245;DHT22;6689;53.400;12.486;2023-10-08T10:24:57;17.60;1.00
13245;DHT22;6689;53.400;12.486;2023-10-08T10:27:26;17.70;2.80
13245;DHT22;6689;53.400;12.486;2023-10-08T10:30:02;17.70;4.90
13245;DHT22;6689;53.400;12.486;2023-10-08T10:32:36;17.60;1.00
13245;DHT22;6689;53.400;12.486;2023-10-08T10:35:06;17.90;1.50
13245;DHT22;6689;53.400;12.486;2023-10-08T10:37:37;18.00;1.00
13245;DHT22;6689;53.400;12.486;2023-10-08T10:40:08;18.00;8.20
13245;DHT22;6689;53.400;12.486;2023-10-08T10:42:39;18.10;1.00
13245;DHT22;6689;53.400;12.486;2023-10-08T10:45:14;17.90;1.00
13245;DHT22;6689;53.400;12.486;2023-10-08T10:48:03;17.70;1.00
13245;DHT22;6689;53.400;12.486;2023-10-08T10:50:40;18.00;1.00
13245;DHT22;6689;53.400;12.486;2023-10-08T10:53:17;17.60;1.00
13245;DHT22;6689;53.400;12.486;2023-10-08T10:55:44;17.90;2.00
13245;DHT22;6689;53.400;12.486;2023-10-08T10:58:24;18.10;13.90
13245;DHT22;6689;53.400;12.486;2023-10-08T11:00:52;17.90;1.00
13245;DHT22;6689;53.400;12.486;2023-10-08T11:03:32;17.90;1.00
13245;DHT22;6689;53.400;12.486;2023-10-08T11:06:01;18.10;1.00
13245;DHT22;6689;53.400;12.486;2023-10-08T11:08:32;18.30;1.00
13245;DHT22;6689;53.400;12.486;2023-10-08T11:11:02;18.30;1.00
13245;DHT22;6689;53.400;12.486;2023-10-08T11:13:33;18.10;1.00
13245;DHT22;6689;53.400;12.486;2023-10-08T11:16:06;18.20;1.00
13245;DHT22;6689;53.400;12.486;2023-10-08T11:18:42;18.20;1.00
13245;DHT22;6689;53.400;12.486;2023-10-08T11:21:11;18.30;1.00
13245;DHT22;6689;53.400;12.486;2023-10-08T11:23:44;18.40;1.00
13245;DHT22;6689;53.400;12.486;2023-10-08T11:26:18;18.60;1.00
13245;DHT22;6689;53.400;12.486;2023-10-08T11:28:47;18.80;1.00
13245;DHT22;6689;53.400;12.486;2023-10-08T11:31:16;18.90;1.00
13245;DHT22;6689;53.400;12.486;2023-10-08T11:33:47;18.90;1.00
13245;DHT22;6689;53.400;12.486;2023-10-08T11:36:22;18.70;1.00
13245;DHT22;6689;53.400;12.486;2023-10-08T11:38:57;18.80;1.00
13245;DHT22;6689;53.400;12.486;2023-10-08T11:41:28;18.70;1.00
13245;DHT22;6689;53.400;12.486;2023-10-08T11:43:57;18.70;1.00
13245;DHT22;6689;53.400;12.486;2023-10-08T11:46:26;18.70;1.00
13245;DHT22;6689;53.400;12.486;2023-10-08T11:49:00;18.60;1.00
13245;DHT22;6689;53.400;12.486;2023-10-08T11:51:32;18.70;1.00
13245;DHT22;6689;53.400;12.486;2023-10-08T11:54:00;18.80;1.00
13245;DHT22;6689;53.400;12.486;2023-10-08T11:56:28;18.90;1.00
13245;DHT22;6689;53.400;12.486;2023-10-08T11:58:56;18.80;1.00
13245;DHT22;6689;53.400;12.486;2023-10-08T12:01:24;18.60;1.00
13245;DHT22;6689;53.400;12.486;2023-10-08T12:03:53;18.40;1.00
13245;DHT22;6689;53.400;12.486;2023-10-08T12:06:26;18.40;1.00
13245;DHT22;6689;53.400;12.486;2023-10-08T12:08:56;18.50;1.00
13245;DHT22;6689;53.400;12.486;2023-10-08T12:11:25;18.60;1.00
13245;DHT22;6689;53.400;12.486;2023-10-08T12:13:57;18.70;1.00
13245;DHT22;6689;53.400;12.486;2023-10-08T12:16:26;18.60;1.00
13245;DHT22;6689;53.400;12.486;2023-10-08T12:18:56;18.40;1.00
13245;DHT22;6689;53.400;12.486;2023-10-08T12:21:26;18.40;1.00
13245;DHT22;6689;53.400;12.486;2023-10-08T12:23:55;18.30;1.00
13245;DHT22;6689;53.400;12.486;2023-10-08T12:26:23;18.10;1.00
13245;DHT22;6689;53.400;12.486;2023-10-08T12:28:51;18.00;1.00
13245;DHT22;6689;53.400;12.486;2023-10-08T12:31:20;17.70;1.00
13245;DHT22;6689;53.400;12.486;2023-10-08T12:33:48;17.60;1.00
13245;DHT22;6689;53.400;12.486;2023-10-08T12:36:19;17.60;1.00
13245;DHT22;6689;53.400;12.486;2023-10-08T12:38:50;17.60;1.00
13245;DHT22;6689;53.400;12.486;2023-10-08T12:41:23;17.80;1.00
13245;DHT22;6689;53.400;12.486;2023-10-08T12:43:53;17.90;1.00
13245;DHT22;6689;53.400;12.486;2023-10-08T12:46:21;18.00;1.00
13245;DHT22;6689;53.400;12.486;2023-10-08T12:48:52;18.10;1.00
13245;DHT22;6689;53.400;12.486;2023-10-08T12:51:20;18.20;1.00
13245;DHT22;6689;53.400;12.486;2023-10-08T12:53:52;18.20;1.00
13245;DHT22;6689;53.400;12.486;2023-10-08T12:56:25;17.80;1.00
13245;DHT22;6689;53.400;12.486;2023-10-08T12:59:02;17.90;1.00
13245;DHT22;6689;53.400;12.486;2023-10-08T13:01:32;17.80;1.00
13245;DHT22;6689;53.400;12.486;2023-10-08T13:04:01;17.90;1.00
13245;DHT22;6689;53.400;12.486;2023-10-08T13:06:33;17.90;1.00
13245;DHT22;6689;53.400;12.486;2023-10-08T13:09:05;17.90;1.00
13245;DHT22;6689;53.400;12.486;2023-10-08T13:11:38;17.90;1.00
13245;DHT22;6689;53.400;12.486;2023-10-08T13:14:06;17.90;1.00
13245;DHT22;6689;53.400;12.486;2023-10-08T13:16:34;17.90;1.00
13245;DHT22;6689;53.400;12.486;2023-10-08T13:19:03;18.00;1.00
13245;DHT22;6689;53.400;12.486;2023-10-08T13:21:33;18.00;1.00
13245;DHT22;6689;53.400;12.486;2023-10-08T13:24:05;18.00;1.00
13245;DHT22;6689;53.400;12.486;2023-10-08T13:26:35;18.00;1.00
13245;DHT22;6689;53.400;12.486;2023-10-08T13:29:03;18.10;1.00
13245;DHT22;6689;53.400;12.486;2023-10-08T13:31:31;18.10;1.00
13245;DHT22;6689;53.400;12.486;2023-10-08T13:34:02;17.80;1.00
13245;DHT22;6689;53.400;12.486;2023-10-08T13:36:34;17.80;1.00
13245;DHT22;6689;53.400;12.486;2023-10-08T13:39:06;17.80;1.00
13245;DHT22;6689;53.400;12.486;2023-10-08T13:41:35;17.70;1.00
13245;DHT22;6689;53.400;12.486;2023-10-08T13:44:04;17.60;1.00
13245;DHT22;6689;53.400;12.486;2023-10-08T13:46:32;17.70;1.00
13245;DHT22;6689;53.400;12.486;2023-10-08T13:49:02;17.80;1.00
13245;DHT22;6689;53.400;12.486;2023-10-08T13:51:31;17.80;1.00
13245;DHT22;6689;53.400;12.486;2023-10-08T13:54:01;17.70;1.00
13245;DHT22;6689;53.400;12.486;2023-10-08T13:56:34;17.70;1.00
13245;DHT22;6689;53.400;12.486;2023-10-08T13:59:04;17.60;1.00
13245;DHT22;6689;53.400;12.486;2023-10-08T14:01:39;17.60;1.00
13245;DHT22;6689;53.400;12.486;2023-10-08T14:04:09;17.60;1.00
13245;DHT22;6689;53.400;12.486;2023-10-08T14:06:37;17.40;1.00
13245;DHT22;6689;53.400;12.486;2023-10-08T14:09:08;17.40;1.00
13245;DHT22;6689;53.400;12.486;2023-10-08T14:11:39;17.40;1.00
13245;DHT22;6689;53.400;12.486;2023-10-08T14:14:06;17.30;1.00
13245;DHT22;6689;53.400;12.486;2023-10-08T14:16:38;17.40;1.00
13245;DHT22;6689;53.400;12.486;2023-10-08T14:19:09;17.40;1.00
13245;DHT22;6689;53.400;12.486;2023-10-08T14:21:38;17.40;1.00
13245;DHT22;6689;53.400;12.486;2023-10-08T14:24:16;17.30;1.00
13245;DHT22;6689;53.400;12.486;2023-10-08T14:26:45;17.20;1.00
13245;DHT22;6689;53.400;12.486;2023-10-08T14:29:18;17.20;1.00
13245;DHT22;6689;53.400;12.486;2023-10-08T14:31:46;17.30;1.00
13245;DHT22;6689;53.400;12.486;2023-10-08T14:34:16;17.20;1.00
13245;DHT22;6689;53.400;12.486;2023-10-08T14:36:55;17.30;1.00
13245;DHT22;6689;53.400;12.486;2023-10-08T14:39:39;17.30;1.00
13245;DHT22;6689;53.400;12.486;2023-10-08T14:42:26;17.30;1.00
13245;DHT22;6689;53.400;12.486;2023-10-08T14:45:11;17.20;1.00
13245;DHT22;6689;53.400;12.486;2023-10-08T14:47:39;17.30;1.00
13245;DHT22;6689;53.400;12.486;2023-10-08T14:50:08;17.20;1.00
13245;DHT22;6689;53.400;12.486;2023-10-08T14:52:42;17.30;1.00
13245;DHT22;6689;53.400;12.486;2023-10-08T14:55:09;17.30;1.00
13245;DHT22;6689;53.400;12.486;2023-10-08T14:57:39;17.30;1.00
13245;DHT22;6689;53.400;12.486;2023-10-08T15:00:08;17.30;6.00
13245;DHT22;6689;53.400;12.486;2023-10-08T15:02:36;17.20;1.40
13245;DHT22;6689;53.400;12.486;2023-10-08T15:05:05;17.20;1.00
13245;DHT22;6689;53.400;12.486;2023-10-08T15:07:33;17.20;1.00
13245;DHT22;6689;53.400;12.486;2023-10-08T15:10:02;17.10;1.00
13245;DHT22;6689;53.400;12.486;2023-10-08T15:12:29;17.10;1.00
13245;DHT22;6689;53.400;12.486;2023-10-08T15:15:02;17.00;1.00
13245;DHT22;6689;53.400;12.486;2023-10-08T15:17:38;17.00;2.70
13245;DHT22;6689;53.400;12.486;2023-10-08T15:20:07;16.90;11.70
13245;DHT22;6689;53.400;12.486;2023-10-08T15:22:40;16.80;18.80
13245;DHT22;6689;53.400;12.486;2023-10-08T15:25:09;16.80;28.30
13245;DHT22;6689;53.400;12.486;2023-10-08T15:27:37;16.70;32.00
13245;DHT22;6689;53.400;12.486;2023-10-08T15:30:10;16.70;37.80
13245;DHT22;6689;53.400;12.486;2023-10-08T15:32:38;16.60;47.10
13245;DHT22;6689;53.400;12.486;2023-10-08T15:35:07;16.60;57.10
13245;DHT22;6689;53.400;12.486;2023-10-08T15:37:35;16.50;58.10
13245;DHT22;6689;53.400;12.486;2023-10-08T15:40:04;16.50;67.00
13245;DHT22;6689;53.400;12.486;2023-10-08T15:42:32;16.40;72.20
13245;DHT22;6689;53.400;12.486;2023-10-08T15:45:03;16.30;80.10
13245;DHT22;6689;53.400;12.486;2023-10-08T15:47:32;16.30;80.70
13245;DHT22;6689;53.400;12.486;2023-10-08T15:50:01;16.20;76.20
13245;DHT22;6689;53.400;12.486;2023-10-08T15:52:28;16.20;78.10
13245;DHT22;6689;53.400;12.486;2023-10-08T15:54:57;16.10;84.00
13245;DHT22;6689;53.400;12.486;2023-10-08T15:57:24;16.00;84.70
13245;DHT22;6689;53.400;12.486;2023-10-08T15:59:52;16.00;93.90
13245;DHT22;6689;53.400;12.486;2023-10-08T16:02:19;15.90;98.10
13245;DHT22;6689;53.400;12.486;2023-10-08T16:04:48;15.90;98.10
13245;DHT22;6689;53.400;12.486;2023-10-08T16:07:16;15.90;99.90
13245;DHT22;6689;53.400;12.486;2023-10-08T16:09:43;15.80;99.90